sensor_id;sensor_type;location;lat;lon;timestamp;temperature;humidity
50013;DHT22;35901;48.694;9.476;2022-08-25T00:01:45;14.70;99.90
50013;DHT22;35901;48.694;9.476;2022-08-25T00:04:13;14.70;99.90
50013;DHT22;35901;48.694;9.476;2022-08-25T00:06:40;14.70;99.90
50013;DHT22;35901;48.694;9.476;2022-08-25T00:09:07;14.70;99.90
50013;DHT22;35901;48.694;9.476;2022-08-25T00:11:34;14.70;99.90
50013;DHT22;35901;48.694;9.476;2022-08-25T00:14:04;14.60;99.90
50013;DHT22;35901;48.694;9.476;2022-08-25T00:16:30;14.60;99.90
50013;DHT22;35901;48.694;9.476;2022-08-25T00:19:00;14.60;99.90
50013;DHT22;35901;48.694;9.476;2022-08-25T00:21:26;14.50;99.90
50013;DHT22;35901;48.694;9.476;2022-08-25T00:23:53;14.50;99.90
50013;DHT22;35901;48.694;9.476;2022-08-25T00:26:19;14.50;99.90
50013;DHT22;35901;48.694;9.476;2022-08-25T00:28:45;14.60;99.90
50013;DHT22;35901;48.694;9.476;2022-08-25T00:31:13;14.60;99.90
50013;DHT22;35901;48.694;9.476;2022-08-25T00:33:40;14.60;99.90
50013;DHT22;35901;48.694;9.476;2022-08-25T00:36:06;14.60;99.90
50013;DHT22;35901;48.694;9.476;2022-08-25T00:38:31;14.60;99.90
50013;DHT22;35901;48.694;9.476;2022-08-25T00:40:57;14.50;99.90
50013;DHT22;35901;48.694;9.476;2022-08-25T00:44:00;14.50;99.90
50013;DHT22;35901;48.694;9.476;2022-08-25T00:46:29;14.50;99.90
50013;DHT22;35901;48.694;9.476;2022-08-25T00:48:59;14.50;99.90
50013;DHT22;35901;48.694;9.476;2022-08-25T00:51:39;14.40;99.90
50013;DHT22;35901;48.694;9.476;2022-08-25T00:54:19;14.40;99.90
50013;DHT22;35901;48.694;9.476;2022-08-25T00:56:47;14.40;99.90
50013;DHT22;35901;48.694;9.476;2022-08-25T00:59:15;14.40;99.90
50013;DHT22;35901;48.694;9.476;2022-08-25T01:01:42;14.40;99.90
50013;DHT22;35901;48.694;9.476;2022-08-25T01:04:08;14.40;99.90
50013;DHT22;35901;48.694;9.476;2022-08-25T01:06:36;14.40;99.90
50013;DHT22;35901;48.694;9.476;2022-08-25T01:09:04;14.40;99.90
50013;DHT22;35901;48.694;9.476;2022-08-25T01:11:31;14.40;99.90
50013;DHT22;35901;48.694;9.476;2022-08-25T01:13:57;14.40;99.90
50013;DHT22;35901;48.694;9.476;2022-08-25T01:16:27;14.40;99.90
50013;DHT22;35901;48.694;9.476;2022-08-25T01:18:56;14.50;99.90
50013;DHT22;35901;48.694;9.476;2022-08-25T01:21:24;14.40;99.90
50013;DHT22;35901;48.694;9.476;2022-08-25T01:23:50;14.30;99.90
50013;DHT22;35901;48.694;9.476;2022-08-25T01:26:29;14.30;99.90
50013;DHT22;35901;48.694;9.476;2022-08-25T01:28:56;14.40;99.90
50013;DHT22;35901;48.694;9.476;2022-08-25T01:31:41;14.40;99.90
50013;DHT22;35901;48.694;9.476;2022-08-25T01:34:08;14.40;99.90
50013;DHT22;35901;48.694;9.476;2022-08-25T01:36:35;14.40;99.90
50013;DHT22;35901;48.694;9.476;2022-08-25T01:39:01;14.50;99.90
50013;DHT22;35901;48.694;9.476;2022-08-25T01:41:40;14.60;99.90
50013;DHT22;35901;48.694;9.476;2022-08-25T01:44:09;14.70;99.90
50013;DHT22;35901;48.694;9.476;2022-08-25T01:46:34;14.90;99.90
50013;DHT22;35901;48.694;9.476;2022-08-25T01:49:01;14.90;99.90
50013;DHT22;35901;48.694;9.476;2022-08-25T01:51:32;14.90;99.90
50013;DHT22;35901;48.694;9.476;2022-08-25T01:53:58;15.00;99.90
50013;DHT22;35901;48.694;9.476;2022-08-25T01:56:23;14.90;99.90
50013;DHT22;35901;48.694;9.476;2022-08-25T01:58:49;14.90;99.90
50013;DHT22;35901;48.694;9.476;2022-08-25T02:01:18;14.90;99.90
50013;DHT22;35901;48.694;9.476;2022-08-25T02:03:47;14.90;99.90
50013;DHT22;35901;48.694;9.476;2022-08-25T02:06:15;14.90;99.90
50013;DHT22;35901;48.694;9.476;2022-08-25T02:08:42;14.80;99.90
50013;DHT22;35901;48.694;9.476;2022-08-25T02:11:12;14.80;99.90
50013;DHT22;35901;48.694;9.476;2022-08-25T02:13:39;14.80;99.90
50013;DHT22;35901;48.694;9.476;2022-08-25T02:16:05;14.80;99.90
50013;DHT22;35901;48.694;9.476;2022-08-25T02:18:31;14.70;99.90
50013;DHT22;35901;48.694;9.476;2022-08-25T02:20:57;14.60;99.90
50013;DHT22;35901;48.694;9.476;2022-08-25T02:23:23;14.50;99.90
50013;DHT22;35901;48.694;9.476;2022-08-25T02:25:48;14.30;99.90
50013;DHT22;35901;48.694;9.476;2022-08-25T02:28:14;14.20;99.90
50013;DHT22;35901;48.694;9.476;2022-08-25T02:30:41;14.10;99.90
50013;DHT22;35901;48.694;9.476;2022-08-25T02:33:07;14.20;99.90
50013;DHT22;35901;48.694;9.476;2022-08-25T02:35:33;14.30;99.90
50013;DHT22;35901;48.694;9.476;2022-08-25T02:37:59;14.40;99.90
50013;DHT22;35901;48.694;9.476;2022-08-25T02:40:25;14.40;99.90
50013;DHT22;35901;48.694;9.476;2022-08-25T02:42:52;14.50;99.90
50013;DHT22;35901;48.694;9.476;2022-08-25T02:45:19;14.60;99.90
50013;DHT22;35901;48.694;9.476;2022-08-25T02:47:45;14.70;99.90
50013;DHT22;35901;48.694;9.476;2022-08-25T02:50:12;14.60;99.90
50013;DHT22;35901;48.694;9.476;2022-08-25T02:52:38;14.60;99.90
50013;DHT22;35901;48.694;9.476;2022-08-25T02:55:07;14.50;99.90
50013;DHT22;35901;48.694;9.476;2022-08-25T02:57:34;14.50;99.90
50013;DHT22;35901;48.694;9.476;2022-08-25T03:00:00;14.50;99.90
50013;DHT22;35901;48.694;9.476;2022-08-25T03:02:26;14.50;99.90
50013;DHT22;35901;48.694;9.476;2022-08-25T03:04:53;14.50;99.90
50013;DHT22;35901;48.694;9.476;2022-08-25T03:07:19;14.40;99.90
50013;DHT22;35901;48.694;9.476;2022-08-25T03:09:45;14.40;99.90
50013;DHT22;35901;48.694;9.476;2022-08-25T03:12:11;14.40;99.90
50013;DHT22;35901;48.694;9.476;2022-08-25T03:14:38;14.40;99.90
50013;DHT22;35901;48.694;9.476;2022-08-25T03:17:05;14.30;99.90
50013;DHT22;35901;48.694;9.476;2022-08-25T03:19:31;14.40;99.90
50013;DHT22;35901;48.694;9.476;2022-08-25T03:21:56;14.60;99.90
50013;DHT22;35901;48.694;9.476;2022-08-25T03:24:24;14.50;99.90
50013;DHT22;35901;48.694;9.476;2022-08-25T03:26:50;14.40;99.90
50013;DHT22;35901;48.694;9.476;2022-08-25T03:29:26;14.40;99.90
50013;DHT22;35901;48.694;9.476;2022-08-25T03:31:54;14.40;99.90
50013;DHT22;35901;48.694;9.476;2022-08-25T03:34:21;14.10;99.90
50013;DHT22;35901;48.694;9.476;2022-08-25T03:36:51;13.90;99.90
50013;DHT22;35901;48.694;9.476;2022-08-25T03:39:18;13.70;99.90
50013;DHT22;35901;48.694;9.476;2022-08-25T03:41:44;13.60;99.90
50013;DHT22;35901;48.694;9.476;2022-08-25T03:44:12;13.60;99.90
50013;DHT22;35901;48.694;9.476;2022-08-25T03:46:40;13.70;99.90
50013;DHT22;35901;48.694;9.476;2022-08-25T03:49:08;13.70;99.90
50013;DHT22;35901;48.694;9.476;2022-08-25T03:51:39;13.70;99.90
50013;DHT22;35901;48.694;9.476;2022-08-25T03:54:06;13.60;99.90
50013;DHT22;35901;48.694;9.476;2022-08-25T03:56:32;13.60;99.90
50013;DHT22;35901;48.694;9.476;2022-08-25T03:58:58;13.60;99.90
50013;DHT22;35901;48.694;9.476;2022-08-25T04:01:23;13.60;99.90
50013;DHT22;35901;48.694;9.476;2022-08-25T04:03:49;13.50;99.90
50013;DHT22;35901;48.694;9.476;2022-08-25T04:06:16;13.50;99.90
50013;DHT22;35901;48.694;9.476;2022-08-25T04:08:43;13.40;99.90
50013;DHT22;35901;48.694;9.476;2022-08-25T04:11:11;13.40;99.90
50013;DHT22;35901;48.694;9.476;2022-08-25T04:13:37;13.40;99.90
50013;DHT22;35901;48.694;9.476;2022-08-25T04:16:16;13.40;99.90
50013;DHT22;35901;48.694;9.476;2022-08-25T04:18:43;13.40;99.90
50013;DHT22;35901;48.694;9.476;2022-08-25T04:21:10;13.40;99.90
50013;DHT22;35901;48.694;9.476;2022-08-25T04:23:39;13.40;99.90
50013;DHT22;35901;48.694;9.476;2022-08-25T04:26:21;13.30;99.90
50013;DHT22;35901;48.694;9.476;2022-08-25T04:28:47;13.20;99.90
50013;DHT22;35901;48.694;9.476;2022-08-25T04:31:14;13.10;99.90
50013;DHT22;35901;48.694;9.476;2022-08-25T04:33:40;13.00;99.90
50013;DHT22;35901;48.694;9.476;2022-08-25T04:36:08;13.00;99.90
50013;DHT22;35901;48.694;9.476;2022-08-25T04:38:37;13.00;99.90
50013;DHT22;35901;48.694;9.476;2022-08-25T04:41:05;13.00;99.90
50013;DHT22;35901;48.694;9.476;2022-08-25T04:43:32;13.00;99.90
50013;DHT22;35901;48.694;9.476;2022-08-25T04:45:59;13.20;99.90
50013;DHT22;35901;48.694;9.476;2022-08-25T04:48:25;13.30;99.90
50013;DHT22;35901;48.694;9.476;2022-08-25T04:50:51;13.50;99.90
50013;DHT22;35901;48.694;9.476;2022-08-25T04:53:17;13.60;99.90
50013;DHT22;35901;48.694;9.476;2022-08-25T04:55:45;13.80;99.90
50013;DHT22;35901;48.694;9.476;2022-08-25T04:58:12;13.80;99.90
50013;DHT22;35901;48.694;9.476;2022-08-25T05:00:38;14.00;99.90
50013;DHT22;35901;48.694;9.476;2022-08-25T05:03:05;14.40;99.90
50013;DHT22;35901;48.694;9.476;2022-08-25T05:05:34;14.70;99.90
50013;DHT22;35901;48.694;9.476;2022-08-25T05:08:00;15.10;99.90
50013;DHT22;35901;48.694;9.476;2022-08-25T05:10:26;15.60;99.90
50013;DHT22;35901;48.694;9.476;2022-08-25T05:12:51;16.00;99.90
50013;DHT22;35901;48.694;9.476;2022-08-25T05:15:17;16.30;99.90
50013;DHT22;35901;48.694;9.476;2022-08-25T05:18:02;16.70;99.90
50013;DHT22;35901;48.694;9.476;2022-08-25T05:20:28;17.00;99.90
50013;DHT22;35901;48.694;9.476;2022-08-25T05:22:56;17.40;99.90
50013;DHT22;35901;48.694;9.476;2022-08-25T05:25:22;17.60;99.90
50013;DHT22;35901;48.694;9.476;2022-08-25T05:27:48;17.70;99.90
50013;DHT22;35901;48.694;9.476;2022-08-25T05:30:14;17.70;99.90
50013;DHT22;35901;48.694;9.476;2022-08-25T05:32:40;17.70;99.90
50013;DHT22;35901;48.694;9.476;2022-08-25T05:35:06;18.00;99.90
50013;DHT22;35901;48.694;9.476;2022-08-25T05:37:32;18.30;99.90
50013;DHT22;35901;48.694;9.476;2022-08-25T05:39:58;18.80;99.90
50013;DHT22;35901;48.694;9.476;2022-08-25T05:42:25;19.10;99.90
50013;DHT22;35901;48.694;9.476;2022-08-25T05:44:53;19.40;99.90
50013;DHT22;35901;48.694;9.476;2022-08-25T05:47:19;19.60;99.90
50013;DHT22;35901;48.694;9.476;2022-08-25T05:49:45;19.90;99.90
50013;DHT22;35901;48.694;9.476;2022-08-25T05:52:11;20.10;99.90
50013;DHT22;35901;48.694;9.476;2022-08-25T05:54:37;20.20;99.90
50013;DHT22;35901;48.694;9.476;2022-08-25T05:57:05;20.10;99.90
50013;DHT22;35901;48.694;9.476;2022-08-25T05:59:31;20.30;99.90
50013;DHT22;35901;48.694;9.476;2022-08-25T06:01:57;20.60;99.90
50013;DHT22;35901;48.694;9.476;2022-08-25T06:04:41;20.90;99.90
50013;DHT22;35901;48.694;9.476;2022-08-25T06:07:07;21.20;99.90
50013;DHT22;35901;48.694;9.476;2022-08-25T06:09:33;21.40;99.90
50013;DHT22;35901;48.694;9.476;2022-08-25T06:11:59;21.50;99.90
50013;DHT22;35901;48.694;9.476;2022-08-25T06:14:24;21.60;99.90
50013;DHT22;35901;48.694;9.476;2022-08-25T06:16:50;21.80;99.90
50013;DHT22;35901;48.694;9.476;2022-08-25T06:19:17;22.10;99.90
50013;DHT22;35901;48.694;9.476;2022-08-25T06:21:42;22.40;99.90
50013;DHT22;35901;48.694;9.476;2022-08-25T06:24:09;22.50;99.90
50013;DHT22;35901;48.694;9.476;2022-08-25T06:26:35;22.60;99.90
50013;DHT22;35901;48.694;9.476;2022-08-25T06:29:01;23.00;99.30
50013;DHT22;35901;48.694;9.476;2022-08-25T06:31:27;23.30;98.60
50013;DHT22;35901;48.694;9.476;2022-08-25T06:33:53;23.60;97.50
50013;DHT22;35901;48.694;9.476;2022-08-25T06:36:19;23.70;96.80
50013;DHT22;35901;48.694;9.476;2022-08-25T06:38:46;23.80;96.40
50013;DHT22;35901;48.694;9.476;2022-08-25T06:41:12;24.10;95.70
50013;DHT22;35901;48.694;9.476;2022-08-25T06:43:40;24.30;95.20
50013;DHT22;35901;48.694;9.476;2022-08-25T06:46:13;24.70;94.60
50013;DHT22;35901;48.694;9.476;2022-08-25T06:48:39;25.00;93.90
50013;DHT22;35901;48.694;9.476;2022-08-25T06:51:10;25.00;93.20
50013;DHT22;35901;48.694;9.476;2022-08-25T06:53:36;25.10;92.60
50013;DHT22;35901;48.694;9.476;2022-08-25T06:56:02;25.10;92.10
50013;DHT22;35901;48.694;9.476;2022-08-25T06:58:28;25.20;91.80
50013;DHT22;35901;48.694;9.476;2022-08-25T07:00:54;25.20;91.80
50013;DHT22;35901;48.694;9.476;2022-08-25T07:03:20;25.20;91.60
50013;DHT22;35901;48.694;9.476;2022-08-25T07:05:54;25.20;91.50
50013;DHT22;35901;48.694;9.476;2022-08-25T07:08:21;25.40;91.20
50013;DHT22;35901;48.694;9.476;2022-08-25T07:10:47;25.60;90.90
50013;DHT22;35901;48.694;9.476;2022-08-25T07:13:14;25.60;90.50
50013;DHT22;35901;48.694;9.476;2022-08-25T07:15:41;25.50;90.30
50013;DHT22;35901;48.694;9.476;2022-08-25T07:18:07;25.40;90.20
50013;DHT22;35901;48.694;9.476;2022-08-25T07:20:34;25.50;89.70
50013;DHT22;35901;48.694;9.476;2022-08-25T07:23:00;25.70;89.40
50013;DHT22;35901;48.694;9.476;2022-08-25T07:25:26;25.70;89.50
50013;DHT22;35901;48.694;9.476;2022-08-25T07:27:51;25.60;89.90
50013;DHT22;35901;48.694;9.476;2022-08-25T07:30:18;25.80;88.30
50013;DHT22;35901;48.694;9.476;2022-08-25T07:32:44;25.90;88.10
50013;DHT22;35901;48.694;9.476;2022-08-25T07:35:10;25.90;88.30
50013;DHT22;35901;48.694;9.476;2022-08-25T07:37:49;25.90;88.60
50013;DHT22;35901;48.694;9.476;2022-08-25T07:40:22;26.10;88.50
50013;DHT22;35901;48.694;9.476;2022-08-25T07:42:51;26.40;87.80
50013;DHT22;35901;48.694;9.476;2022-08-25T07:45:19;26.80;86.40
50013;DHT22;35901;48.694;9.476;2022-08-25T07:47:45;26.80;85.70
50013;DHT22;35901;48.694;9.476;2022-08-25T07:50:12;26.70;85.20
50013;DHT22;35901;48.694;9.476;2022-08-25T07:52:39;26.80;84.60
50013;DHT22;35901;48.694;9.476;2022-08-25T07:55:06;26.70;83.90
50013;DHT22;35901;48.694;9.476;2022-08-25T07:57:33;26.90;84.40
50013;DHT22;35901;48.694;9.476;2022-08-25T07:59:58;27.50;82.40
50013;DHT22;35901;48.694;9.476;2022-08-25T08:02:24;27.30;82.20
50013;DHT22;35901;48.694;9.476;2022-08-25T08:04:52;27.60;82.10
50013;DHT22;35901;48.694;9.476;2022-08-25T08:07:20;27.50;80.40
50013;DHT22;35901;48.694;9.476;2022-08-25T08:09:47;27.30;81.50
50013;DHT22;35901;48.694;9.476;2022-08-25T08:12:13;27.10;80.70
50013;DHT22;35901;48.694;9.476;2022-08-25T08:14:38;26.70;83.30
50013;DHT22;35901;48.694;9.476;2022-08-25T08:17:06;27.00;83.10
50013;DHT22;35901;48.694;9.476;2022-08-25T08:19:32;26.90;83.90
50013;DHT22;35901;48.694;9.476;2022-08-25T08:21:59;27.20;82.80
50013;DHT22;35901;48.694;9.476;2022-08-25T08:24:25;27.60;81.60
50013;DHT22;35901;48.694;9.476;2022-08-25T08:26:50;27.40;81.40
50013;DHT22;35901;48.694;9.476;2022-08-25T08:29:16;27.30;82.30
50013;DHT22;35901;48.694;9.476;2022-08-25T08:31:44;27.20;82.50
50013;DHT22;35901;48.694;9.476;2022-08-25T08:34:10;27.80;81.10
50013;DHT22;35901;48.694;9.476;2022-08-25T08:36:36;27.80;80.40
50013;DHT22;35901;48.694;9.476;2022-08-25T08:39:02;27.50;82.00
50013;DHT22;35901;48.694;9.476;2022-08-25T08:44:45;27.60;80.40
50013;DHT22;35901;48.694;9.476;2022-08-25T08:47:22;27.50;80.90
50013;DHT22;35901;48.694;9.476;2022-08-25T08:55:27;27.90;78.60
50013;DHT22;35901;48.694;9.476;2022-08-25T08:57:56;27.90;77.80
50013;DHT22;35901;48.694;9.476;2022-08-25T09:00:22;27.80;77.40
50013;DHT22;35901;48.694;9.476;2022-08-25T09:03:01;27.50;77.70
50013;DHT22;35901;48.694;9.476;2022-08-25T09:05:30;27.30;77.60
50013;DHT22;35901;48.694;9.476;2022-08-25T09:08:03;27.40;77.60
50013;DHT22;35901;48.694;9.476;2022-08-25T09:11:01;27.20;77.70
50013;DHT22;35901;48.694;9.476;2022-08-25T09:16:41;27.50;78.40
50013;DHT22;35901;48.694;9.476;2022-08-25T09:19:52;27.90;76.20
50013;DHT22;35901;48.694;9.476;2022-08-25T09:27:56;28.00;75.80
50013;DHT22;35901;48.694;9.476;2022-08-25T09:30:43;27.90;75.70
50013;DHT22;35901;48.694;9.476;2022-08-25T09:33:12;27.90;75.40
50013;DHT22;35901;48.694;9.476;2022-08-25T09:35:40;28.30;74.30
50013;DHT22;35901;48.694;9.476;2022-08-25T09:38:09;28.20;75.30
50013;DHT22;35901;48.694;9.476;2022-08-25T09:40:39;28.30;74.70
50013;DHT22;35901;48.694;9.476;2022-08-25T09:45:49;27.80;76.00
50013;DHT22;35901;48.694;9.476;2022-08-25T09:48:33;28.00;76.10
50013;DHT22;35901;48.694;9.476;2022-08-25T09:53:52;28.50;74.40
50013;DHT22;35901;48.694;9.476;2022-08-25T09:56:21;28.90;71.80
50013;DHT22;35901;48.694;9.476;2022-08-25T09:58:48;28.80;72.10
50013;DHT22;35901;48.694;9.476;2022-08-25T10:01:22;28.60;72.40
50013;DHT22;35901;48.694;9.476;2022-08-25T10:04:03;28.50;72.20
50013;DHT22;35901;48.694;9.476;2022-08-25T10:06:33;28.40;71.10
50013;DHT22;35901;48.694;9.476;2022-08-25T10:09:05;28.30;73.40
50013;DHT22;35901;48.694;9.476;2022-08-25T10:11:33;28.60;72.10
50013;DHT22;35901;48.694;9.476;2022-08-25T10:16:47;28.40;72.50
50013;DHT22;35901;48.694;9.476;2022-08-25T10:19:27;28.80;72.30
50013;DHT22;35901;48.694;9.476;2022-08-25T10:22:09;29.10;70.90
50013;DHT22;35901;48.694;9.476;2022-08-25T10:24:37;28.90;71.00
50013;DHT22;35901;48.694;9.476;2022-08-25T10:35:14;29.20;69.80
50013;DHT22;35901;48.694;9.476;2022-08-25T10:38:07;29.70;69.40
50013;DHT22;35901;48.694;9.476;2022-08-25T10:43:20;29.10;70.20
50013;DHT22;35901;48.694;9.476;2022-08-25T10:51:40;29.90;69.30
50013;DHT22;35901;48.694;9.476;2022-08-25T11:07:48;29.40;68.60
50013;DHT22;35901;48.694;9.476;2022-08-25T11:10:24;29.80;67.70
50013;DHT22;35901;48.694;9.476;2022-08-25T11:12:56;30.10;66.60
50013;DHT22;35901;48.694;9.476;2022-08-25T11:15:35;30.40;64.70
50013;DHT22;35901;48.694;9.476;2022-08-25T11:18:07;30.80;65.30
50013;DHT22;35901;48.694;9.476;2022-08-25T11:20:43;30.50;64.80
50013;DHT22;35901;48.694;9.476;2022-08-25T11:23:19;30.00;66.80
50013;DHT22;35901;48.694;9.476;2022-08-25T11:25:50;29.80;67.30
50013;DHT22;35901;48.694;9.476;2022-08-25T11:31:08;30.90;64.60
50013;DHT22;35901;48.694;9.476;2022-08-25T11:33:35;30.50;64.80
50013;DHT22;35901;48.694;9.476;2022-08-25T11:36:05;30.40;65.80
50013;DHT22;35901;48.694;9.476;2022-08-25T11:50:04;30.40;62.70
50013;DHT22;35901;48.694;9.476;2022-08-25T11:57:39;30.20;64.30
50013;DHT22;35901;48.694;9.476;2022-08-25T12:00:14;30.10;65.50
50013;DHT22;35901;48.694;9.476;2022-08-25T12:02:58;30.80;64.90
50013;DHT22;35901;48.694;9.476;2022-08-25T12:08:00;31.40;61.30
50013;DHT22;35901;48.694;9.476;2022-08-25T12:10:58;31.00;62.10
50013;DHT22;35901;48.694;9.476;2022-08-25T12:13:49;31.10;62.40
50013;DHT22;35901;48.694;9.476;2022-08-25T12:19:22;30.60;63.00
50013;DHT22;35901;48.694;9.476;2022-08-25T12:21:48;30.70;62.70
50013;DHT22;35901;48.694;9.476;2022-08-25T12:24:25;30.50;63.70
50013;DHT22;35901;48.694;9.476;2022-08-25T12:27:02;31.10;62.00
50013;DHT22;35901;48.694;9.476;2022-08-25T12:29:44;31.60;61.90
50013;DHT22;35901;48.694;9.476;2022-08-25T12:35:11;31.00;61.00
50013;DHT22;35901;48.694;9.476;2022-08-25T12:38:14;30.60;61.30
50013;DHT22;35901;48.694;9.476;2022-08-25T12:45:53;31.50;60.80
50013;DHT22;35901;48.694;9.476;2022-08-25T12:53:41;31.40;59.80
50013;DHT22;35901;48.694;9.476;2022-08-25T12:56:31;31.30;60.80
50013;DHT22;35901;48.694;9.476;2022-08-25T12:59:06;31.30;61.40
50013;DHT22;35901;48.694;9.476;2022-08-25T13:18:29;31.70;58.80
50013;DHT22;35901;48.694;9.476;2022-08-25T13:23:47;30.80;59.70
50013;DHT22;35901;48.694;9.476;2022-08-25T13:26:25;30.60;61.80
50013;DHT22;35901;48.694;9.476;2022-08-25T13:29:19;31.60;58.70
50013;DHT22;35901;48.694;9.476;2022-08-25T13:31:55;31.60;58.50
50013;DHT22;35901;48.694;9.476;2022-08-25T13:34:30;31.00;59.70
50013;DHT22;35901;48.694;9.476;2022-08-25T13:37:07;31.10;60.30
50013;DHT22;35901;48.694;9.476;2022-08-25T13:40:10;30.80;59.60
50013;DHT22;35901;48.694;9.476;2022-08-25T13:42:40;30.00;61.20
50013;DHT22;35901;48.694;9.476;2022-08-25T13:45:07;29.60;61.50
50013;DHT22;35901;48.694;9.476;2022-08-25T13:47:38;29.80;61.80
50013;DHT22;35901;48.694;9.476;2022-08-25T13:53:23;30.50;60.50
50013;DHT22;35901;48.694;9.476;2022-08-25T13:55:51;30.70;59.40
50013;DHT22;35901;48.694;9.476;2022-08-25T13:58:34;30.50;58.90
50013;DHT22;35901;48.694;9.476;2022-08-25T14:03:37;30.40;60.10
50013;DHT22;35901;48.694;9.476;2022-08-25T14:11:32;29.90;61.50
50013;DHT22;35901;48.694;9.476;2022-08-25T14:14:31;30.20;60.40
50013;DHT22;35901;48.694;9.476;2022-08-25T14:17:02;30.20;60.70
50013;DHT22;35901;48.694;9.476;2022-08-25T14:19:29;30.30;60.70
50013;DHT22;35901;48.694;9.476;2022-08-25T14:21:56;30.40;61.10
50013;DHT22;35901;48.694;9.476;2022-08-25T14:24:30;31.10;59.70
50013;DHT22;35901;48.694;9.476;2022-08-25T14:26:57;31.10;59.50
50013;DHT22;35901;48.694;9.476;2022-08-25T14:29:23;31.10;59.40
50013;DHT22;35901;48.694;9.476;2022-08-25T14:31:49;30.60;59.50
50013;DHT22;35901;48.694;9.476;2022-08-25T14:34:18;30.20;60.60
50013;DHT22;35901;48.694;9.476;2022-08-25T14:36:44;30.60;60.20
50013;DHT22;35901;48.694;9.476;2022-08-25T14:39:11;30.40;60.00
50013;DHT22;35901;48.694;9.476;2022-08-25T14:41:39;30.60;60.90
50013;DHT22;35901;48.694;9.476;2022-08-25T14:44:08;30.50;61.10
50013;DHT22;35901;48.694;9.476;2022-08-25T14:46:41;30.50;62.10
50013;DHT22;35901;48.694;9.476;2022-08-25T14:49:11;30.60;60.80
50013;DHT22;35901;48.694;9.476;2022-08-25T14:51:39;30.70;60.30
50013;DHT22;35901;48.694;9.476;2022-08-25T14:54:08;30.80;60.70
50013;DHT22;35901;48.694;9.476;2022-08-25T14:56:34;30.90;59.70
50013;DHT22;35901;48.694;9.476;2022-08-25T14:59:00;30.70;59.80
50013;DHT22;35901;48.694;9.476;2022-08-25T15:01:27;30.50;60.40
50013;DHT22;35901;48.694;9.476;2022-08-25T15:04:14;30.10;60.10
50013;DHT22;35901;48.694;9.476;2022-08-25T15:06:42;29.70;61.30
50013;DHT22;35901;48.694;9.476;2022-08-25T15:09:10;30.00;61.80
50013;DHT22;35901;48.694;9.476;2022-08-25T15:11:39;30.10;60.40
50013;DHT22;35901;48.694;9.476;2022-08-25T15:14:05;30.40;60.80
50013;DHT22;35901;48.694;9.476;2022-08-25T15:16:34;30.50;59.50
50013;DHT22;35901;48.694;9.476;2022-08-25T15:19:05;30.50;59.10
50013;DHT22;35901;48.694;9.476;2022-08-25T15:21:31;30.60;59.90
50013;DHT22;35901;48.694;9.476;2022-08-25T15:23:57;30.40;59.50
50013;DHT22;35901;48.694;9.476;2022-08-25T15:26:24;30.00;60.40
50013;DHT22;35901;48.694;9.476;2022-08-25T15:28:50;29.60;61.50
50013;DHT22;35901;48.694;9.476;2022-08-25T15:31:18;28.90;62.00
50013;DHT22;35901;48.694;9.476;2022-08-25T15:33:45;28.40;64.80
50013;DHT22;35901;48.694;9.476;2022-08-25T15:36:13;28.00;65.90
50013;DHT22;35901;48.694;9.476;2022-08-25T15:38:42;27.80;67.10
50013;DHT22;35901;48.694;9.476;2022-08-25T15:41:11;27.60;67.20
50013;DHT22;35901;48.694;9.476;2022-08-25T15:43:37;27.50;68.10
50013;DHT22;35901;48.694;9.476;2022-08-25T15:46:03;27.50;68.70
50013;DHT22;35901;48.694;9.476;2022-08-25T15:48:30;28.00;67.70
50013;DHT22;35901;48.694;9.476;2022-08-25T15:50:56;28.50;66.00
50013;DHT22;35901;48.694;9.476;2022-08-25T15:53:26;29.00;64.80
50013;DHT22;35901;48.694;9.476;2022-08-25T15:55:52;29.30;64.00
50013;DHT22;35901;48.694;9.476;2022-08-25T15:58:18;29.80;62.30
50013;DHT22;35901;48.694;9.476;2022-08-25T16:00:45;30.10;59.90
50013;DHT22;35901;48.694;9.476;2022-08-25T16:03:12;30.10;60.80
50013;DHT22;35901;48.694;9.476;2022-08-25T16:05:39;30.10;59.80
50013;DHT22;35901;48.694;9.476;2022-08-25T16:08:06;30.00;60.00
50013;DHT22;35901;48.694;9.476;2022-08-25T16:10:33;30.10;60.10
50013;DHT22;35901;48.694;9.476;2022-08-25T16:12:58;30.00;59.60
50013;DHT22;35901;48.694;9.476;2022-08-25T16:15:24;29.90;60.30
50013;DHT22;35901;48.694;9.476;2022-08-25T16:17:50;29.90;61.80
50013;DHT22;35901;48.694;9.476;2022-08-25T16:20:16;30.00;60.80
50013;DHT22;35901;48.694;9.476;2022-08-25T16:22:41;30.00;60.20
50013;DHT22;35901;48.694;9.476;2022-08-25T16:25:09;29.90;60.20
50013;DHT22;35901;48.694;9.476;2022-08-25T16:27:35;29.70;60.70
50013;DHT22;35901;48.694;9.476;2022-08-25T16:30:01;29.50;60.60
50013;DHT22;35901;48.694;9.476;2022-08-25T16:32:26;29.40;60.90
50013;DHT22;35901;48.694;9.476;2022-08-25T16:34:52;29.50;60.80
50013;DHT22;35901;48.694;9.476;2022-08-25T16:37:18;29.40;63.20
50013;DHT22;35901;48.694;9.476;2022-08-25T16:39:44;29.60;62.40
50013;DHT22;35901;48.694;9.476;2022-08-25T16:42:11;29.40;61.60
50013;DHT22;35901;48.694;9.476;2022-08-25T16:44:37;29.00;62.20
50013;DHT22;35901;48.694;9.476;2022-08-25T16:47:04;28.60;63.50
50013;DHT22;35901;48.694;9.476;2022-08-25T16:49:30;28.40;63.90
50013;DHT22;35901;48.694;9.476;2022-08-25T16:51:56;28.40;63.50
50013;DHT22;35901;48.694;9.476;2022-08-25T16:54:21;28.60;65.20
50013;DHT22;35901;48.694;9.476;2022-08-25T16:57:05;28.70;64.80
50013;DHT22;35901;48.694;9.476;2022-08-25T16:59:31;28.70;65.00
50013;DHT22;35901;48.694;9.476;2022-08-25T17:01:57;28.70;65.20
50013;DHT22;35901;48.694;9.476;2022-08-25T17:04:22;28.70;65.00
50013;DHT22;35901;48.694;9.476;2022-08-25T17:06:48;28.70;64.20
50013;DHT22;35901;48.694;9.476;2022-08-25T17:09:14;28.60;64.10
50013;DHT22;35901;48.694;9.476;2022-08-25T17:11:45;28.50;64.60
50013;DHT22;35901;48.694;9.476;2022-08-25T17:14:13;28.50;65.70
50013;DHT22;35901;48.694;9.476;2022-08-25T17:16:40;28.40;65.70
50013;DHT22;35901;48.694;9.476;2022-08-25T17:19:08;28.30;66.60
50013;DHT22;35901;48.694;9.476;2022-08-25T17:21:36;28.30;67.20
50013;DHT22;35901;48.694;9.476;2022-08-25T17:24:05;28.10;66.80
50013;DHT22;35901;48.694;9.476;2022-08-25T17:26:31;28.00;68.40
50013;DHT22;35901;48.694;9.476;2022-08-25T17:28:59;27.90;68.60
50013;DHT22;35901;48.694;9.476;2022-08-25T17:31:25;27.80;69.20
50013;DHT22;35901;48.694;9.476;2022-08-25T17:33:51;27.60;69.20
50013;DHT22;35901;48.694;9.476;2022-08-25T17:36:17;27.50;69.00
50013;DHT22;35901;48.694;9.476;2022-08-25T17:38:43;27.40;69.10
50013;DHT22;35901;48.694;9.476;2022-08-25T17:41:09;27.30;69.00
50013;DHT22;35901;48.694;9.476;2022-08-25T17:43:39;26.90;69.30
50013;DHT22;35901;48.694;9.476;2022-08-25T17:46:06;26.60;70.00
50013;DHT22;35901;48.694;9.476;2022-08-25T17:48:32;26.30;70.50